Time;durP1;ratioP1;P1;durP2;ratioP2;P2;SDS_P1;SDS_P2;PMS_P1;PMS_P2;Temp;Humidity;BMP_temperature;BMP_pressure;BME280_temperature;BME280_humidity;BME280_pressure;Samples;Min_cycle;Max_cycle;Signal;HPM_P1;HPM_P2
2022/12/03 00:02:35;;;;;;;21.00;17.83;;;6.50;45.50;;;;;;10424899;28;20236;-74
2022/12/03 00:07:39;;;;;;;18.83;16.03;;;6.50;45.50;;;;;;10420810;28;20655;-75
2022/12/03 00:12:42;;;;;;;20.27;16.33;;;6.50;45.50;;;;;;10419720;28;20315;-75
2022/12/03 00:17:46;;;;;;;21.07;16.97;;;6.50;45.40;;;;;;10418588;28;20234;-75
2022/12/03 00:22:49;;;;;;;18.00;16.07;;;6.50;45.40;;;;;;10420320;28;20225;-74
2022/12/03 00:27:52;;;;;;;17.13;15.13;;;6.50;45.30;;;;;;10422506;28;20229;-75
2022/12/03 00:32:57;;;;;;;18.63;16.10;;;6.50;45.30;;;;;;10417454;28;20295;-75
2022/12/03 00:38:00;;;;;;;19.20;17.00;;;6.40;45.60;;;;;;10419878;28;20712;-71
2022/12/03 00:43:03;;;;;;;19.83;17.23;;;6.40;45.60;;;;;;10418278;28;20244;-71
2022/12/03 00:48:08;;;;;;;21.63;16.90;;;6.40;45.70;;;;;;10415900;28;20240;-71
2022/12/03 00:53:11;;;;;;;18.47;16.47;;;6.40;45.70;;;;;;10421813;28;20229;-71
2022/12/03 00:58:14;;;;;;;18.93;16.23;;;6.40;45.50;;;;;;10416238;28;20225;-71
2022/12/03 01:03:18;;;;;;;20.60;16.80;;;6.40;45.60;;;;;;10420796;28;20236;-72
2022/12/03 01:08:22;;;;;;;18.40;15.80;;;6.40;45.50;;;;;;10415272;28;20251;-72
2022/12/03 01:13:25;;;;;;;18.50;15.90;;;6.40;45.60;;;;;;10416135;28;20695;-71
2022/12/03 01:18:29;;;;;;;18.60;15.53;;;6.40;45.60;;;;;;10419424;28;20260;-71
2022/12/03 01:23:32;;;;;;;19.80;17.13;;;6.40;45.60;;;;;;10420577;28;20229;-71
2022/12/03 01:28:36;;;;;;;22.20;18.13;;;6.50;45.60;;;;;;10421851;28;20233;-71
2022/12/03 01:33:40;;;;;;;20.77;17.30;;;6.50;45.70;;;;;;10418608;28;20240;-69
2022/12/03 01:38:43;;;;;;;20.20;17.27;;;6.50;45.70;;;;;;10418079;28;20236;-69
2022/12/03 01:43:47;;;;;;;21.83;17.37;;;6.50;45.60;;;;;;10416142;28;20229;-69
2022/12/03 01:48:54;;;;;;;22.03;17.63;;;6.50;45.60;;;;;;10413585;28;20233;-69
2022/12/03 01:53:59;;;;;;;22.00;18.30;;;6.50;45.50;;;;;;10414117;28;20237;-69
2022/12/03 01:59:02;;;;;;;20.40;16.43;;;6.40;45.60;;;;;;10411870;28;20239;-69
2022/12/03 02:04:09;;;;;;;21.10;16.30;;;6.40;45.60;;;;;;10415191;28;20236;-69
2022/12/03 02:09:12;;;;;;;22.97;17.60;;;6.40;45.50;;;;;;10415459;28;20236;-69
2022/12/03 02:14:19;;;;;;;21.63;17.07;;;6.40;45.50;;;;;;10420208;28;20243;-67
2022/12/03 02:19:26;;;;;;;21.27;17.73;;;6.30;45.60;;;;;;10420736;28;20233;-67
2022/12/03 02:24:37;;;;;;;23.47;18.23;;;6.30;45.50;;;;;;10420470;28;20243;-75
2022/12/03 02:29:41;;;;;;;22.27;17.53;;;6.20;45.50;;;;;;10426911;28;20241;-75
2022/12/03 02:34:46;;;;;;;24.43;18.27;;;6.10;45.50;;;;;;10424537;28;20649;-74
2022/12/03 02:39:53;;;;;;;25.00;18.50;;;6.00;45.60;;;;;;10426090;28;20237;-74
2022/12/03 02:45:01;;;;;;;24.40;18.33;;;6.00;45.80;;;;;;10421880;28;20241;-74
2022/12/03 02:50:09;;;;;;;24.90;19.57;;;6.00;45.90;;;;;;10423172;28;20316;-74
2022/12/03 02:55:14;;;;;;;22.73;17.17;;;6.00;45.90;;;;;;10422984;28;20249;-71
2022/12/03 03:00:21;;;;;;;25.70;18.23;;;5.90;46.10;;;;;;10424915;28;20260;-71
2022/12/03 03:05:25;;;;;;;21.13;16.73;;;5.90;46.20;;;;;;10424044;28;20327;-69
2022/12/03 03:10:29;;;;;;;25.20;17.63;;;5.90;46.40;;;;;;10422854;28;20244;-69
2022/12/03 03:15:35;;;;;;;23.17;16.87;;;6.00;46.60;;;;;;10423587;28;20258;-67
2022/12/03 03:20:39;;;;;;;28.03;19.60;;;6.10;46.50;;;;;;10421648;28;20233;-67
2022/12/03 03:25:44;;;;;;;25.67;18.40;;;6.10;46.30;;;;;;10426426;28;20224;-67
2022/12/03 03:30:49;;;;;;;28.40;20.37;;;6.10;46.30;;;;;;10420567;28;20332;-67
2022/12/03 03:35:52;;;;;;;27.90;19.87;;;6.20;46.30;;;;;;10421508;28;20229;-67
2022/12/03 03:40:59;;;;;;;27.80;19.57;;;6.20;46.00;;;;;;10420614;28;20237;-67
2022/12/03 03:46:05;;;;;;;26.70;19.43;;;6.10;45.90;;;;;;10419792;28;20773;-68
2022/12/03 03:51:10;;;;;;;25.43;18.20;;;6.10;46.00;;;;;;10418274;28;20336;-67
2022/12/03 03:56:14;;;;;;;27.77;19.03;;;6.10;46.10;;;;;;10417284;28;20241;-67
2022/12/03 04:01:18;;;;;;;28.27;18.13;;;6.20;46.20;;;;;;10422571;28;20241;-69
2022/12/03 04:06:22;;;;;;;26.17;18.87;;;6.20;46.10;;;;;;10415283;28;20233;-67
2022/12/03 04:16:46;;;;;;;29.90;19.00;;;6.20;46.00;;;;;;10419409;28;20233;-67
2022/12/03 04:37:53;;;;;;;29.00;19.23;;;6.10;46.20;;;;;;10416042;28;20241;-67
2022/12/03 04:42:56;;;;;;;24.73;16.70;;;6.20;46.20;;;;;;10414927;28;20244;-67
2022/12/03 04:48:00;;;;;;;22.50;16.33;;;6.20;45.90;;;;;;10414795;28;20257;-67
2022/12/03 04:53:03;;;;;;;23.27;16.30;;;6.10;45.80;;;;;;10420239;28;20233;-68
2022/12/03 04:58:06;;;;;;;22.07;16.07;;;6.10;45.80;;;;;;10416319;28;20244;-67
2022/12/03 05:03:11;;;;;;;25.50;17.40;;;6.00;45.90;;;;;;10416810;28;20233;-67
2022/12/03 05:08:14;;;;;;;23.60;17.10;;;6.00;46.00;;;;;;10415811;28;20288;-67
2022/12/03 05:13:17;;;;;;;27.40;18.53;;;6.00;46.00;;;;;;10414216;28;20241;-67
2022/12/03 05:18:22;;;;;;;26.87;17.93;;;5.90;46.10;;;;;;10416339;28;20248;-71
2022/12/03 05:23:25;;;;;;;24.83;18.03;;;5.90;46.20;;;;;;10412948;28;20229;-71
2022/12/03 05:28:28;;;;;;;24.90;17.00;;;5.90;46.10;;;;;;10417149;28;20271;-72
2022/12/03 05:33:33;;;;;;;23.63;16.97;;;5.90;46.10;;;;;;10416166;28;21046;-71
2022/12/03 05:38:41;;;;;;;22.80;16.27;;;5.90;46.10;;;;;;10415832;28;20256;-71
2022/12/03 05:43:44;;;;;;;23.07;15.37;;;5.90;46.80;;;;;;10417033;28;21135;-72
2022/12/03 05:48:49;;;;;;;19.83;14.30;;;5.90;46.10;;;;;;10416784;28;20228;-72
2022/12/03 05:53:52;;;;;;;21.10;14.73;;;5.80;46.20;;;;;;10425878;28;20696;-71
2022/12/03 05:58:55;;;;;;;22.33;15.97;;;5.90;46.20;;;;;;10430528;28;20237;-71
2022/12/03 06:03:59;;;;;;;21.53;15.10;;;5.90;46.10;;;;;;10431661;28;20236;-71
2022/12/03 06:09:03;;;;;;;21.10;15.63;;;5.90;46.20;;;;;;10429509;28;20918;-69
2022/12/03 06:14:06;;;;;;;21.00;15.00;;;5.80;45.90;;;;;;10428143;28;20759;-69
2022/12/03 06:19:11;;;;;;;21.30;14.37;;;5.80;45.90;;;;;;10430074;28;20237;-68
2022/12/03 06:24:14;;;;;;;19.77;13.90;;;5.70;45.90;;;;;;10429923;28;20236;-68
2022/12/03 06:29:17;;;;;;;18.63;13.30;;;5.60;45.90;;;;;;10434651;28;20229;-69
2022/12/03 06:34:21;;;;;;;16.10;12.23;;;5.50;46.00;;;;;;10427700;28;20828;-74
2022/12/03 06:39:25;;;;;;;16.57;12.70;;;5.40;46.30;;;;;;10427654;28;20735;-75
2022/12/03 06:44:28;;;;;;;15.63;11.67;;;5.40;46.30;;;;;;10427024;28;20264;-69
2022/12/03 06:49:33;;;;;;;16.17;12.27;;;5.50;46.40;;;;;;10428569;28;20233;-74
2022/12/03 06:54:36;;;;;;;15.47;12.37;;;5.50;46.40;;;;;;10428841;28;20233;-74
2022/12/03 06:59:39;;;;;;;16.47;12.73;;;5.50;46.60;;;;;;10431212;28;20236;-75
2022/12/03 07:04:43;;;;;;;16.63;11.37;;;5.60;46.60;;;;;;10427337;28;20779;-67
2022/12/03 07:09:48;;;;;;;15.10;11.27;;;5.60;46.50;;;;;;10419312;28;20230;-67
2022/12/03 07:14:51;;;;;;;14.53;11.13;;;5.60;46.20;;;;;;10417246;28;20279;-68
2022/12/03 07:19:56;;;;;;;14.47;10.93;;;5.60;46.30;;;;;;10419689;28;20229;-69
2022/12/03 07:24:59;;;;;;;14.60;11.23;;;5.60;46.50;;;;;;10416275;28;20229;-68
2022/12/03 07:30:03;;;;;;;14.53;11.67;;;5.60;46.20;;;;;;10423088;28;20226;-68
2022/12/03 07:35:09;;;;;;;15.83;12.00;;;5.60;46.20;;;;;;10420580;28;20651;-69
2022/12/03 07:40:13;;;;;;;16.67;12.70;;;5.60;46.40;;;;;;10421756;28;20248;-68
2022/12/03 07:45:16;;;;;;;18.43;13.27;;;5.60;46.40;;;;;;10420510;28;20646;-68
2022/12/03 07:50:20;;;;;;;21.33;15.33;;;5.60;46.40;;;;;;10424261;28;20236;-75
2022/12/03 07:55:24;;;;;;;20.67;15.13;;;5.60;46.40;;;;;;10422176;28;20637;-74
2022/12/03 08:00:27;;;;;;;18.87;13.37;;;5.70;46.50;;;;;;10420191;28;20705;-75
2022/12/03 08:05:31;;;;;;;19.77;14.70;;;5.70;46.50;;;;;;10418009;28;20935;-75
2022/12/03 08:10:35;;;;;;;18.27;13.30;;;5.80;46.40;;;;;;10417533;28;20229;-71
2022/12/03 08:15:38;;;;;;;21.10;14.00;;;5.80;46.50;;;;;;10417180;28;20732;-71
2022/12/03 08:20:44;;;;;;;20.77;14.43;;;5.80;46.40;;;;;;10417743;28;20239;-71
2022/12/03 08:25:48;;;;;;;19.57;14.00;;;5.80;46.40;;;;;;10410987;28;21724;-71
2022/12/03 08:31:00;;;;;;;20.53;14.10;;;5.90;46.40;;;;;;10420510;28;20240;-72
2022/12/03 08:36:12;;;;;;;19.27;14.57;;;5.80;46.30;;;;;;10407378;28;20888;-71
2022/12/03 08:42:40;;;;;;;19.37;14.90;;;5.80;46.20;;;;;;10416116;28;20233;-75
2022/12/03 08:46:41;;;;;;;21.70;14.67;;;5.70;46.20;;;;;;10418269;28;20230;-68
2022/12/03 08:51:45;;;;;;;21.93;15.73;;;5.70;46.30;;;;;;10417507;28;20960;-68
2022/12/03 08:56:48;;;;;;;21.70;15.27;;;5.70;46.40;;;;;;10410436;28;20247;-68
2022/12/03 09:01:52;;;;;;;21.30;15.67;;;5.60;46.30;;;;;;10407683;28;20248;-68
2022/12/03 09:06:58;;;;;;;19.37;14.17;;;5.60;46.40;;;;;;10415008;28;20846;-68
2022/12/03 09:12:01;;;;;;;20.47;14.90;;;5.60;46.70;;;;;;10410380;28;20434;-68
2022/12/03 09:17:05;;;;;;;21.40;14.63;;;5.60;46.60;;;;;;10408522;28;20235;-68
2022/12/03 09:22:10;;;;;;;16.70;13.23;;;5.60;46.60;;;;;;10412204;28;20710;-68
2022/12/03 09:27:13;;;;;;;19.73;14.60;;;5.70;46.70;;;;;;10412340;28;20667;-68
2022/12/03 09:32:17;;;;;;;20.37;14.83;;;5.70;46.90;;;;;;10413706;28;20233;-68
2022/12/03 09:37:22;;;;;;;19.80;14.27;;;5.70;46.80;;;;;;10406339;28;20236;-68
2022/12/03 09:42:26;;;;;;;18.17;13.87;;;5.70;46.70;;;;;;10409801;28;20241;-68
2022/12/03 09:47:30;;;;;;;16.77;13.37;;;5.70;46.60;;;;;;10417438;28;20229;-68
2022/12/03 09:52:35;;;;;;;18.30;13.43;;;5.70;46.40;;;;;;10410765;28;20233;-68
2022/12/03 09:57:38;;;;;;;17.03;12.73;;;5.70;46.60;;;;;;10409536;28;20654;-68
2022/12/03 10:02:42;;;;;;;18.43;13.37;;;5.70;46.60;;;;;;10412717;28;20901;-68
2022/12/03 10:07:47;;;;;;;18.13;13.70;;;5.70;46.60;;;;;;10413433;28;21048;-68
2022/12/03 10:12:51;;;;;;;17.17;12.87;;;5.80;46.60;;;;;;10412859;28;20240;-68
2022/12/03 10:17:55;;;;;;;17.87;13.13;;;5.80;46.40;;;;;;10419917;28;20273;-68
2022/12/03 10:23:00;;;;;;;17.40;13.03;;;5.80;46.40;;;;;;10413299;28;20233;-68
2022/12/03 10:28:04;;;;;;;19.70;13.90;;;5.80;46.40;;;;;;10411893;28;20240;-68
2022/12/03 10:33:13;;;;;;;18.73;13.93;;;5.70;46.30;;;;;;10414611;28;20234;-68
2022/12/03 10:38:23;;;;;;;19.13;14.13;;;5.70;46.40;;;;;;10420805;28;20650;-75
2022/12/03 10:43:26;;;;;;;16.67;13.50;;;5.60;46.50;;;;;;10421745;28;20226;-75
2022/12/03 10:48:29;;;;;;;18.07;13.63;;;5.60;46.60;;;;;;10418964;28;20229;-75
2022/12/03 10:53:35;;;;;;;17.90;13.57;;;5.60;46.50;;;;;;10419928;28;21173;-75
2022/12/03 10:58:40;;;;;;;16.03;12.90;;;5.60;46.60;;;;;;10431424;28;20235;-74
2022/12/03 11:03:43;;;;;;;17.43;12.90;;;5.60;46.50;;;;;;10422857;28;20287;-75
2022/12/03 11:08:50;;;;;;;18.60;14.30;;;5.60;46.50;;;;;;10425570;28;20277;-75
2022/12/03 11:14:03;;;;;;;18.17;13.90;;;5.60;46.90;;;;;;10424679;28;20646;-68
2022/12/03 11:19:16;;;;;;;18.30;14.13;;;5.60;47.00;;;;;;10419048;28;20578;-69
2022/12/03 11:24:21;;;;;;;16.17;12.97;;;5.70;47.20;;;;;;10420449;28;20236;-76
2022/12/03 11:29:57;;;;;;;17.97;13.60;;;5.80;46.90;;;;;;10418339;28;20721;-75
2022/12/03 11:35:00;;;;;;;16.97;13.60;;;5.80;46.80;;;;;;10417830;28;20229;-75
2022/12/03 11:40:28;;;;;;;17.63;14.33;;;5.90;46.70;;;;;;10418075;28;20257;-75
2022/12/03 11:45:38;;;;;;;18.77;14.23;;;5.90;46.60;;;;;;10415685;28;20236;-76
2022/12/03 11:50:44;;;;;;;19.77;14.93;;;6.00;46.50;;;;;;10417253;28;20253;-75
2022/12/03 11:56:04;;;;;;;17.93;14.67;;;6.00;46.50;;;;;;10429862;28;20236;-75
2022/12/03 12:01:08;;;;;;;18.70;14.73;;;6.00;46.50;;;;;;10422062;28;20719;-75
2022/12/03 12:06:13;;;;;;;18.00;13.90;;;6.10;46.50;;;;;;10418814;28;20233;-76
2022/12/03 12:11:19;;;;;;;17.77;14.50;;;6.10;46.50;;;;;;10421445;28;20237;-75
2022/12/03 12:16:44;;;;;;;18.70;15.63;;;6.10;46.40;;;;;;10419616;28;20236;-75
2022/12/03 12:21:48;;;;;;;20.17;17.03;;;6.10;46.30;;;;;;10410455;28;20241;-72
2022/12/03 12:26:53;;;;;;;20.47;16.60;;;6.20;46.30;;;;;;10409043;28;20708;-72
2022/12/03 12:32:06;;;;;;;17.10;14.47;;;6.10;46.10;;;;;;10416012;28;20229;-70
2022/12/03 12:37:12;;;;;;;19.43;15.23;;;6.10;46.00;;;;;;10400185;28;20969;-76
2022/12/03 12:42:30;;;;;;;20.70;16.53;;;6.10;46.10;;;;;;10398618;28;21853;-68
2022/12/03 12:47:35;;;;;;;21.53;16.17;;;6.00;46.60;;;;;;10405391;28;20232;-68
2022/12/03 12:52:47;;;;;;;18.83;15.33;;;6.00;46.00;;;;;;10415422;28;20225;-68
2022/12/03 12:57:52;;;;;;;19.70;16.10;;;5.90;46.00;;;;;;10417976;28;20237;-72
2022/12/03 13:02:58;;;;;;;19.20;16.27;;;5.90;46.30;;;;;;10413307;28;20263;-72
2022/12/03 13:08:16;;;;;;;21.70;15.97;;;5.90;46.50;;;;;;10410706;28;21542;-72
2022/12/03 13:13:24;;;;;;;21.87;16.43;;;6.00;46.50;;;;;;10415384;28;20248;-72
2022/12/03 13:18:33;;;;;;;22.60;16.43;;;6.00;46.50;;;;;;10411603;28;20252;-70
2022/12/03 13:23:37;;;;;;;19.77;15.60;;;6.00;46.20;;;;;;10416155;28;20233;-70
2022/12/03 13:28:42;;;;;;;21.90;15.80;;;6.00;46.80;;;;;;10411871;28;20237;-70
2022/12/03 13:33:45;;;;;;;22.97;17.13;;;5.90;46.00;;;;;;10410833;28;20221;-70
2022/12/03 13:38:49;;;;;;;21.57;15.60;;;5.90;46.10;;;;;;10411562;28;20282;-70
2022/12/03 13:43:53;;;;;;;20.23;15.93;;;5.80;46.10;;;;;;10409692;28;20234;-69
2022/12/03 13:48:56;;;;;;;19.17;14.30;;;5.80;46.30;;;;;;10410656;28;20236;-69
2022/12/03 13:54:05;;;;;;;21.10;14.67;;;5.70;46.20;;;;;;10406246;28;20225;-71
2022/12/03 13:59:15;;;;;;;20.70;16.43;;;5.60;46.10;;;;;;10411799;28;20237;-70
2022/12/03 14:04:41;;;;;;;19.57;15.07;;;5.70;46.20;;;;;;10378454;28;20229;-70
2022/12/03 14:09:44;;;;;;;20.23;14.70;;;5.60;46.20;;;;;;10420879;28;20630;-70
2022/12/03 14:14:48;;;;;;;20.63;15.63;;;5.60;47.00;;;;;;10419443;28;20232;-70
2022/12/03 14:19:51;;;;;;;21.33;17.37;;;5.60;46.30;;;;;;10420593;28;20241;-68
2022/12/03 14:24:55;;;;;;;18.53;15.17;;;5.60;46.30;;;;;;10427053;28;20733;-68
2022/12/03 14:30:00;;;;;;;20.80;15.53;;;5.60;46.40;;;;;;10425652;28;20275;-70
2022/12/03 14:35:04;;;;;;;17.97;14.63;;;5.60;46.60;;;;;;10417603;28;20713;-68
2022/12/03 14:40:12;;;;;;;18.13;14.20;;;5.70;46.90;;;;;;10420612;28;20237;-70
2022/12/03 14:45:26;;;;;;;19.27;15.10;;;5.80;46.60;;;;;;10416411;28;20245;-69
2022/12/03 14:50:29;;;;;;;21.00;15.47;;;5.80;46.20;;;;;;10420842;28;20234;-70
2022/12/03 14:55:32;;;;;;;17.80;12.70;;;5.70;46.10;;;;;;10418712;28;20781;-69
2022/12/03 15:00:37;;;;;;;18.73;13.73;;;5.60;46.00;;;;;;10423158;28;20233;-68
2022/12/03 15:05:40;;;;;;;20.63;14.83;;;5.60;46.10;;;;;;10423799;28;20316;-75
2022/12/03 15:10:43;;;;;;;16.77;12.57;;;5.60;46.10;;;;;;10424583;28;20241;-70
2022/12/03 15:15:48;;;;;;;19.17;15.03;;;5.50;46.20;;;;;;10420291;28;20221;-68
2022/12/03 15:20:52;;;;;;;20.03;15.33;;;5.50;46.40;;;;;;10420397;28;20239;-75
2022/12/03 15:25:55;;;;;;;19.63;14.37;;;5.50;46.50;;;;;;10416803;28;20234;-68
2022/12/03 15:31:00;;;;;;;19.30;14.53;;;5.50;46.50;;;;;;10422781;28;20586;-70
2022/12/03 15:36:03;;;;;;;20.83;16.17;;;5.60;46.70;;;;;;10413872;28;20640;-70
2022/12/03 15:41:22;;;;;;;19.07;14.80;;;5.60;46.60;;;;;;10415224;28;20592;-75
2022/12/03 15:46:27;;;;;;;24.30;17.77;;;5.60;46.40;;;;;;10419587;28;20239;-75
2022/12/03 15:51:30;;;;;;;22.90;17.63;;;5.60;46.60;;;;;;10419195;28;20717;-76
2022/12/03 15:56:36;;;;;;;23.43;19.70;;;5.70;47.90;;;;;;10420174;28;20287;-69
2022/12/03 16:01:41;;;;;;;22.50;16.47;;;5.80;47.50;;;;;;10412613;28;20257;-69
2022/12/03 16:06:44;;;;;;;22.70;17.20;;;5.80;47.20;;;;;;10421610;28;20753;-69
2022/12/03 16:11:47;;;;;;;20.97;15.03;;;5.90;46.80;;;;;;10413730;28;20225;-69
2022/12/03 16:16:52;;;;;;;18.83;14.87;;;6.00;46.50;;;;;;10418290;28;20237;-69
2022/12/03 16:21:55;;;;;;;18.70;14.30;;;5.90;46.00;;;;;;10417085;28;20384;-70
2022/12/03 16:26:58;;;;;;;20.47;14.73;;;5.90;45.90;;;;;;10417905;28;20224;-70
2022/12/03 16:32:02;;;;;;;18.57;13.90;;;5.70;46.00;;;;;;10418171;28;20233;-71
2022/12/03 16:37:06;;;;;;;20.07;15.17;;;5.60;46.10;;;;;;10409969;28;20232;-69
2022/12/03 16:42:09;;;;;;;18.10;14.83;;;5.60;46.30;;;;;;10416323;28;20237;-70
2022/12/03 16:47:21;;;;;;;17.67;13.70;;;5.60;46.50;;;;;;10418367;28;20233;-69
2022/12/03 16:52:24;;;;;;;17.27;14.00;;;5.60;47.00;;;;;;10414953;28;20237;-69
2022/12/03 16:57:27;;;;;;;19.07;15.07;;;5.60;47.50;;;;;;10418827;28;20701;-69
2022/12/03 17:02:37;;;;;;;17.53;14.50;;;5.70;46.70;;;;;;10414664;28;20366;-69
2022/12/03 17:07:40;;;;;;;21.37;17.20;;;5.70;46.50;;;;;;10413577;28;20244;-69
2022/12/03 17:12:43;;;;;;;18.07;15.63;;;5.80;46.30;;;;;;10415159;28;20231;-70
2022/12/03 17:18:09;;;;;;;20.67;16.17;;;5.70;46.20;;;;;;10417746;28;20291;-70
2022/12/03 17:23:12;;;;;;;18.17;14.57;;;5.70;46.30;;;;;;10416704;28;20233;-70
2022/12/03 17:28:15;;;;;;;19.13;14.97;;;5.60;46.00;;;;;;10416408;28;20237;-69
2022/12/03 17:33:20;;;;;;;18.57;15.33;;;5.60;46.10;;;;;;10411670;28;20225;-70
2022/12/03 17:38:23;;;;;;;19.30;15.03;;;5.50;46.10;;;;;;10413791;28;20233;-70
2022/12/03 17:43:26;;;;;;;20.30;16.97;;;5.50;46.30;;;;;;10417081;28;20287;-70
2022/12/03 17:48:31;;;;;;;19.10;15.50;;;5.40;46.30;;;;;;10411333;28;20288;-70
2022/12/03 17:53:34;;;;;;;17.77;15.00;;;5.50;46.50;;;;;;10415430;28;20229;-71
2022/12/03 17:58:37;;;;;;;17.10;14.00;;;5.50;46.40;;;;;;10412345;28;20252;-69
2022/12/03 18:03:41;;;;;;;16.37;14.27;;;5.50;46.60;;;;;;10407821;28;20229;-69
2022/12/03 18:08:45;;;;;;;16.30;13.80;;;5.50;46.50;;;;;;10404721;28;20241;-69
2022/12/03 18:13:48;;;;;;;16.20;13.83;;;5.60;46.30;;;;;;10412559;28;20274;-70
2022/12/03 18:18:52;;;;;;;17.33;14.10;;;5.60;46.00;;;;;;10408946;28;20234;-74
2022/12/03 18:24:01;;;;;;;18.90;15.03;;;5.50;46.10;;;;;;10410775;28;20323;-75
2022/12/03 18:29:04;;;;;;;17.97;15.33;;;5.50;46.10;;;;;;10414765;28;20705;-74
2022/12/03 18:34:09;;;;;;;17.50;14.77;;;5.50;46.40;;;;;;10412786;28;20229;-74
2022/12/03 18:39:23;;;;;;;16.80;13.83;;;5.50;46.70;;;;;;10411548;28;20252;-74
2022/12/03 18:44:27;;;;;;;19.37;16.13;;;5.50;46.70;;;;;;10412173;28;20289;-74
2022/12/03 18:49:32;;;;;;;17.80;15.13;;;5.60;46.60;;;;;;10407594;28;20248;-74
2022/12/03 18:54:35;;;;;;;18.70;15.83;;;5.60;46.20;;;;;;10410819;28;20234;-74
2022/12/03 18:59:39;;;;;;;20.70;16.87;;;5.60;46.10;;;;;;10416275;28;20254;-75
2022/12/03 19:04:44;;;;;;;18.93;16.43;;;5.60;46.10;;;;;;10420740;28;20261;-74
2022/12/03 19:09:47;;;;;;;20.37;16.20;;;5.50;46.30;;;;;;10420416;28;20234;-74
2022/12/03 19:14:50;;;;;;;18.83;16.40;;;5.50;46.30;;;;;;10423280;28;20294;-74
2022/12/03 19:19:55;;;;;;;19.23;16.83;;;5.50;46.40;;;;;;10416388;28;20229;-75
2022/12/03 19:24:59;;;;;;;19.90;16.60;;;5.50;46.50;;;;;;10418221;28;20225;-69
2022/12/03 19:30:02;;;;;;;22.47;17.17;;;5.50;46.40;;;;;;10426705;28;20282;-69
2022/12/03 19:35:09;;;;;;;18.53;15.87;;;5.50;46.50;;;;;;10414686;28;20229;-69
2022/12/03 19:40:13;;;;;;;19.93;16.40;;;5.50;46.70;;;;;;10414237;28;20234;-69
2022/12/03 19:45:17;;;;;;;21.50;17.27;;;5.50;46.60;;;;;;10420418;28;20264;-69
2022/12/03 19:50:21;;;;;;;20.60;17.63;;;5.60;46.70;;;;;;10416749;28;20229;-68
2022/12/03 19:55:25;;;;;;;21.13;18.17;;;5.60;46.80;;;;;;10419103;28;20275;-68
2022/12/03 20:00:28;;;;;;;23.07;18.10;;;5.60;46.80;;;;;;10425962;28;20240;-68
2022/12/03 20:05:37;;;;;;;23.87;19.13;;;5.60;46.70;;;;;;10406038;28;20244;-68
2022/12/03 20:10:40;;;;;;;21.03;17.10;;;5.60;47.00;;;;;;10409882;28;20705;-68
2022/12/03 20:15:43;;;;;;;22.00;18.03;;;5.60;46.90;;;;;;10412984;28;20240;-68
2022/12/03 20:20:47;;;;;;;22.07;18.47;;;5.70;47.00;;;;;;10411916;28;20236;-70
2022/12/03 20:25:51;;;;;;;18.57;15.20;;;5.70;47.00;;;;;;10407586;28;20232;-69
2022/12/03 20:30:58;;;;;;;19.43;15.67;;;5.80;47.00;;;;;;10412172;28;20241;-69
2022/12/03 20:36:02;;;;;;;24.13;18.57;;;5.80;47.10;;;;;;10403758;28;20646;-69
2022/12/03 20:41:08;;;;;;;21.00;17.17;;;5.80;47.10;;;;;;10409128;28;20235;-74
2022/12/03 20:46:12;;;;;;;18.43;14.93;;;5.80;47.00;;;;;;10404677;28;20249;-74
2022/12/03 20:51:19;;;;;;;18.03;15.87;;;5.80;47.00;;;;;;10408325;28;20291;-74
2022/12/03 20:56:25;;;;;;;17.77;15.40;;;5.90;47.10;;;;;;10406913;28;21053;-74
2022/12/03 21:01:28;;;;;;;15.67;13.33;;;5.90;47.00;;;;;;10411527;28;20240;-74
2022/12/03 21:06:34;;;;;;;15.57;13.60;;;5.90;47.00;;;;;;10407400;28;20251;-74
2022/12/03 21:11:41;;;;;;;16.17;13.30;;;5.90;47.20;;;;;;10403710;28;20913;-74
2022/12/03 21:16:47;;;;;;;14.77;12.73;;;5.90;47.00;;;;;;10402262;28;20236;-69
2022/12/03 21:22:12;;;;;;;13.57;12.13;;;5.90;47.10;;;;;;10402255;28;20244;-70
2022/12/03 21:27:16;;;;;;;17.37;14.03;;;6.00;47.20;;;;;;10398512;28;20244;-69
2022/12/03 21:32:24;;;;;;;12.93;11.40;;;6.00;47.10;;;;;;10400006;28;20264;-69
2022/12/03 21:37:28;;;;;;;14.33;12.83;;;6.00;47.00;;;;;;10393064;28;20236;-69
2022/12/03 21:42:31;;;;;;;14.77;12.53;;;6.00;47.20;;;;;;10400936;28;20246;-70
2022/12/03 21:47:39;;;;;;;15.00;12.20;;;6.10;47.20;;;;;;10400373;28;20302;-73
2022/12/03 21:52:44;;;;;;;14.80;13.13;;;6.10;47.30;;;;;;10400427;28;20282;-74
2022/12/03 21:57:47;;;;;;;14.63;13.03;;;6.10;47.40;;;;;;10391571;28;20278;-74
2022/12/03 22:02:51;;;;;;;16.40;14.13;;;6.20;47.20;;;;;;10398554;28;20230;-74
2022/12/03 22:07:55;;;;;;;18.00;14.43;;;6.20;47.20;;;;;;10402672;28;20248;-74
2022/12/03 22:12:59;;;;;;;17.27;13.97;;;6.20;47.20;;;;;;10404751;28;20257;-71
2022/12/03 22:18:03;;;;;;;16.43;13.30;;;6.30;47.20;;;;;;10400523;28;20839;-71
2022/12/03 22:23:07;;;;;;;16.90;14.17;;;6.30;47.20;;;;;;10399868;28;20237;-71
2022/12/03 22:28:12;;;;;;;15.47;13.10;;;6.20;47.20;;;;;;10399830;28;20234;-71
2022/12/03 22:33:16;;;;;;;16.00;13.00;;;6.30;47.20;;;;;;10403609;28;20234;-71
2022/12/03 22:38:20;;;;;;;15.53;13.70;;;6.30;47.20;;;;;;10406024;28;20257;-71
2022/12/03 22:43:24;;;;;;;15.67;14.03;;;6.30;47.20;;;;;;10407877;28;20233;-71
2022/12/03 22:48:27;;;;;;;16.60;13.90;;;6.30;47.00;;;;;;10405675;28;20312;-71
2022/12/03 22:53:32;;;;;;;16.87;13.90;;;6.30;46.90;;;;;;10407206;28;20240;-71
2022/12/03 22:58:37;;;;;;;15.03;13.00;;;6.30;47.00;;;;;;10408728;28;20394;-71
2022/12/03 23:03:40;;;;;;;16.43;13.33;;;6.30;47.10;;;;;;10408213;28;20994;-71
2022/12/03 23:08:45;;;;;;;18.30;15.00;;;6.30;47.20;;;;;;10406458;28;20234;-71
2022/12/03 23:13:48;;;;;;;15.10;13.40;;;6.30;47.10;;;;;;10417729;28;20581;-71
2022/12/03 23:18:51;;;;;;;16.47;13.23;;;6.30;47.10;;;;;;10414084;28;20241;-71
2022/12/03 23:23:56;;;;;;;15.13;12.87;;;6.20;47.20;;;;;;10422129;28;20968;-71
2022/12/03 23:28:59;;;;;;;15.10;12.97;;;6.30;47.20;;;;;;10419263;28;20233;-71
2022/12/03 23:34:03;;;;;;;13.47;12.03;;;6.30;47.10;;;;;;10421597;28;20700;-71
2022/12/03 23:39:07;;;;;;;14.70;12.37;;;6.20;46.90;;;;;;10416550;28;20713;-71
2022/12/03 23:44:11;;;;;;;15.63;12.80;;;6.20;47.20;;;;;;10418530;28;20240;-71
2022/12/03 23:49:14;;;;;;;14.33;12.50;;;6.20;47.20;;;;;;10414670;28;20317;-71
2022/12/03 23:54:18;;;;;;;14.73;13.03;;;6.20;47.20;;;;;;10415771;28;20284;-71
2022/12/03 23:59:21;;;;;;;14.57;12.57;;;6.30;47.40;;;;;;10421224;28;20245;-71
